»·PEaware :: WAT352 KJAC-KDEN

WAT352 :: KJAC-KDEN

FLIGHT INFORMATION

Flight Status: Arrived
Operator:
Walker Air Transport
More flights by this operator :: More flights under this callsign
Pilot: Matthew M. (27032)
Aircraft: DASSAULT AVIATION FALCON 50
(FA50)
More flights by this aircraft type
Origin: KJAC Jackson Hole
United States
Destination: KDEN Denver Intl
United States
More flights between these airports :: More routes between these airports
Route: +GEYSR5 NALSI DNW OCS MJANE FLATI1
File this flight plan on PilotEdge
Remarks: RMK / SIMBRIEF
Altitude:
(Current/Filed)
37,000ft
Speed:
(Current/Filed)
460kts
Departed: 21-Nov-20 07:51 PM
Arrived: 21-Nov-20 08:47 PM
Distance/Time
Traveled:
353nm/0:55
Distance/Time
To Go:
Arrived

Flight Plot

Page will automatically refresh every two minutes.

Flight plan parsing failed; only flown route is shown


Map Options




Map Legend


Flown Route
Filed Route
Departure Airport
Arrival Airport
Navaid (VOR, NDB)
Fix

Horizontal Profiles

Position Reports

Time Latitude Longitude Heading Altitude Ground
Speed
21-Nov-20 19:30 43.599237 -110.738909 110 6428ft 0kts
21-Nov-20 19:31 43.599237 -110.738909 110 6428ft 0kts
21-Nov-20 19:32 43.599237 -110.738909 110 6428ft 0kts
21-Nov-20 19:33 43.599237 -110.738909 110 6428ft 0kts
21-Nov-20 19:34 43.599237 -110.738909 110 6428ft 0kts
21-Nov-20 19:35 43.599237 -110.738909 110 6428ft 0kts
21-Nov-20 19:36 43.599237 -110.738909 110 6428ft 0kts
21-Nov-20 19:37 43.599237 -110.738909 110 6428ft 0kts
21-Nov-20 19:38 43.599237 -110.738909 110 6428ft 0kts
21-Nov-20 19:39 43.599237 -110.738909 110 6428ft 0kts
21-Nov-20 19:40 43.599237 -110.738909 110 6428ft 0kts
21-Nov-20 19:41 43.599237 -110.738909 110 6428ft 0kts
21-Nov-20 19:42 43.599237 -110.738909 110 6428ft 0kts
21-Nov-20 19:43 43.599237 -110.738909 110 6428ft 0kts
21-Nov-20 19:45 43.599237 -110.738909 110 6428ft 0kts
21-Nov-20 19:46 43.599237 -110.738909 110 6428ft 0kts
21-Nov-20 19:47 43.599237 -110.738909 110 6428ft 0kts
21-Nov-20 19:48 43.599044 -110.738907 218 6428ft 1kts
21-Nov-20 19:49 43.598932 -110.740251 289 6428ft 3kts
21-Nov-20 19:50 43.598993 -110.740493 289 6428ft 2kts
21-Nov-20 19:51 43.608178 -110.737330 19 6484ft 136kts
21-Nov-20 19:52 43.648482 -110.718051 18 9194ft 188kts
21-Nov-20 19:53 43.697084 -110.664817 50 13340ft 264kts
21-Nov-20 19:54 43.666492 -110.562816 151 15540ft 382kts
21-Nov-20 19:55 43.567450 -110.486181 150 18005ft 427kts
21-Nov-20 19:56 43.461503 -110.404456 150 20609ft 448kts
21-Nov-20 19:57 43.350147 -110.319033 151 23073ft 467kts
21-Nov-20 19:58 43.234463 -110.230678 151 25300ft 484kts
21-Nov-20 19:59 43.115863 -110.140452 152 27815ft 484kts
21-Nov-20 20:00 42.997985 -110.051212 152 30113ft 482kts
21-Nov-20 20:01 42.879967 -109.962270 153 32131ft 482kts
21-Nov-20 20:02 42.762791 -109.874334 154 34201ft 475kts
21-Nov-20 20:03 42.647053 -109.787865 155 36140ft 468kts
21-Nov-20 20:04 42.532166 -109.702443 156 37472ft 474kts
21-Nov-20 20:05 42.411810 -109.613470 156 37459ft 504kts
21-Nov-20 20:06 42.285453 -109.520242 155 37458ft 523kts
21-Nov-20 20:06 42.177456 -109.440893 155 37459ft 531kts
21-Nov-20 20:07 42.046489 -109.345119 156 37457ft 535kts
21-Nov-20 20:08 41.915021 -109.249428 157 37439ft 534kts
21-Nov-20 20:09 41.784561 -109.154934 157 37434ft 529kts
21-Nov-20 20:10 41.654924 -109.060012 152 37434ft 530kts
21-Nov-20 20:11 41.557332 -108.910317 115 37441ft 543kts
21-Nov-20 20:12 41.498155 -108.724047 112 37442ft 543kts
21-Nov-20 20:13 41.438828 -108.537400 112 37446ft 544kts
21-Nov-20 20:14 41.379403 -108.348417 111 37451ft 545kts
21-Nov-20 20:15 41.330128 -108.154930 106 37446ft 543kts
21-Nov-20 20:16 41.282917 -107.961577 107 37474ft 543kts
21-Nov-20 20:17 41.235029 -107.768360 107 37481ft 544kts
21-Nov-20 20:18 41.186893 -107.575772 107 37484ft 545kts
21-Nov-20 20:19 41.138104 -107.382156 107 37487ft 547kts
21-Nov-20 20:20 41.089369 -107.190222 108 37475ft 546kts
21-Nov-20 20:21 41.039915 -106.997002 108 37474ft 546kts
21-Nov-20 20:22 40.990164 -106.804121 108 37426ft 548kts
21-Nov-20 20:23 40.939963 -106.610904 108 37421ft 549kts
21-Nov-20 20:24 40.889630 -106.418577 108 36288ft 534kts
21-Nov-20 20:25 40.839539 -106.237510 113 34235ft 511kts
21-Nov-20 20:26 40.778648 -106.062307 115 32195ft 524kts
21-Nov-20 20:27 40.715133 -105.885050 115 30176ft 533kts
21-Nov-20 20:28 40.651478 -105.708130 115 28153ft 518kts
21-Nov-20 20:29 40.589660 -105.537467 114 26137ft 501kts
21-Nov-20 20:30 40.529311 -105.371663 114 24134ft 488kts
21-Nov-20 20:31 40.473302 -105.218778 117 21933ft 405kts
21-Nov-20 20:32 40.395602 -105.120658 149 19836ft 367kts
21-Nov-20 20:33 40.313521 -105.044609 149 18448ft 351kts
21-Nov-20 20:34 40.237551 -104.974380 149 17161ft 351kts
21-Nov-20 20:35 40.155674 -104.908890 162 15926ft 333kts
21-Nov-20 20:36 40.070094 -104.860566 161 14660ft 323kts
21-Nov-20 20:37 39.986949 -104.813340 160 13444ft 315kts
21-Nov-20 20:38 39.903882 -104.805578 185 12224ft 279kts
21-Nov-20 20:39 39.830901 -104.807736 184 11199ft 248kts
21-Nov-20 20:40 39.761961 -104.809155 180 10967ft 251kts
21-Nov-20 20:41 39.702105 -104.772082 127 10047ft 247kts
21-Nov-20 20:42 39.701200 -104.688170 72 8809ft 225kts
21-Nov-20 20:43 39.745811 -104.663381 4 7636ft 125kts
21-Nov-20 20:44 39.781641 -104.661352 3 6389ft 123kts
21-Nov-20 20:45 39.817566 -104.660689 2 5684ft 130kts
21-Nov-20 20:46 39.844032 -104.660393 0 5441ft 36kts
21-Nov-20 20:47 39.848976 -104.662330 211 5441ft 7kts
21-Nov-20 20:48 39.845289 -104.662482 180 5441ft 18kts
21-Nov-20 20:49 39.840708 -104.662547 182 5441ft 0kts
21-Nov-20 20:50 39.839694 -104.663932 229 5441ft 17kts
21-Nov-20 20:51 39.838694 -104.665234 181 5441ft 0kts
21-Nov-20 20:52 39.838694 -104.665234 181 5441ft 0kts
21-Nov-20 20:53 39.838694 -104.665234 181 5441ft 0kts

Navigation Log

Ident Type
Flight plan parsing failed, navigation log unavailable